createdAt,value
2022-11-23T00:00:49.090Z,99841.34
2022-11-23T00:03:42.205Z,99835.41
2022-11-23T00:06:12.305Z,99829.25
2022-11-23T00:08:38.784Z,99827.63
2022-11-23T00:11:05.253Z,99827.63
2022-11-23T00:13:31.785Z,99823.22
2022-11-23T00:15:58.135Z,99824.25
2022-11-23T00:18:24.506Z,99820.38
2022-11-23T00:20:50.880Z,99823.28
2022-11-23T00:23:20.279Z,99818.72
2022-11-23T00:25:49.320Z,99831.38
2022-11-23T00:28:15.747Z,99828.88
2022-11-23T00:30:42.074Z,99824.84
2022-11-23T00:33:08.497Z,99820.91
2022-11-23T00:35:35.003Z,99816.91
2022-11-23T00:38:01.421Z,99818.59
2022-11-23T00:40:27.730Z,99825.41
2022-11-23T00:42:54.105Z,99825.25
2022-11-23T00:45:20.517Z,99840.03
2022-11-23T00:47:46.882Z,99844.91
2022-11-23T00:50:14.473Z,99842.25
2022-11-23T00:52:40.861Z,99839.75
2022-11-23T00:55:07.439Z,99847.66
2022-11-23T00:57:34.478Z,99846.91
2022-11-23T01:00:01.318Z,99853.91
2022-11-23T01:02:27.684Z,99861.72
2022-11-23T01:04:54.054Z,99849.91
2022-11-23T01:07:20.650Z,99860.44
2022-11-23T01:09:47.073Z,99852.19
2022-11-23T01:12:13.437Z,99837.34
2022-11-23T01:14:41.997Z,99839.22
2022-11-23T01:17:08.477Z,99838.63
2022-11-23T01:19:35.022Z,99841.06
2022-11-23T01:22:01.553Z,99845.13
2022-11-23T01:24:28.021Z,99842.94
2022-11-23T01:26:55.188Z,99846.56
2022-11-23T01:29:22.455Z,99846.31
2022-11-23T01:31:48.846Z,99845.69
2022-11-23T01:38:00.861Z,99849.56
2022-11-23T01:40:27.368Z,99844.28
2022-11-23T01:49:58.568Z,99854.63
2022-11-23T01:52:26.355Z,99857.44
2022-11-23T01:54:56.806Z,99865.63
2022-11-23T01:57:31.475Z,99867.97
2022-11-23T02:00:26.782Z,99856.13
2022-11-23T02:10:08.108Z,99859.00
2022-11-23T02:12:55.675Z,99855.63
2022-11-23T02:15:32.526Z,99853.44
2022-11-23T02:17:59.742Z,99852.19
2022-11-23T02:22:13.236Z,99852.44
2022-11-23T02:23:44.211Z,99858.59
2022-11-23T02:26:16.279Z,99849.16
2022-11-23T02:28:44.350Z,99846.25
2022-11-23T02:31:11.039Z,99840.41
2022-11-23T02:33:38.621Z,99840.47
2022-11-23T02:36:23.753Z,99833.28
2022-11-23T02:38:50.143Z,99834.09
2022-11-23T02:41:16.499Z,99835.13
2022-11-23T02:43:43.444Z,99839.63
2022-11-23T02:46:10.150Z,99835.13
2022-11-23T02:48:36.581Z,99847.47
2022-11-23T02:51:03.054Z,99860.00
2022-11-23T02:53:29.583Z,99845.56
2022-11-23T02:55:56.044Z,99844.97
2022-11-23T02:58:22.592Z,99846.63
2022-11-23T03:00:49.038Z,99853.53
2022-11-23T03:03:15.444Z,99857.66
2022-11-23T03:05:41.763Z,99851.31
2022-11-23T03:08:08.108Z,99855.72
2022-11-23T03:10:34.529Z,99853.44
2022-11-23T03:13:00.896Z,99856.72
2022-11-23T03:15:28.552Z,99852.72
2022-11-23T03:17:56.862Z,99856.78
2022-11-23T03:20:23.326Z,99856.88
2022-11-23T03:22:49.795Z,99862.06
2022-11-23T03:25:16.264Z,99863.41
2022-11-23T03:27:42.699Z,99850.88
2022-11-23T03:30:09.551Z,99853.00
2022-11-23T03:32:36.399Z,99857.38
2022-11-23T03:35:03.304Z,99868.00
2022-11-23T03:37:29.635Z,99867.84
2022-11-23T03:39:55.973Z,99867.81
2022-11-23T03:42:22.341Z,99862.66
2022-11-23T03:44:48.700Z,99862.66
2022-11-23T03:47:15.167Z,99853.91
2022-11-23T03:49:41.542Z,99849.09
2022-11-23T03:52:07.985Z,99859.66
2022-11-23T03:54:51.533Z,99858.66
2022-11-23T03:57:18.007Z,99861.06
2022-11-23T03:59:44.483Z,99857.78
2022-11-23T04:02:10.902Z,99857.59
2022-11-23T04:04:37.289Z,99864.03
2022-11-23T04:07:04.804Z,99865.16
2022-11-23T04:09:31.491Z,99867.13
2022-11-23T04:11:58.243Z,99865.31
2022-11-23T04:14:24.642Z,99869.53
2022-11-23T04:16:50.999Z,99864.03
2022-11-23T04:19:17.392Z,99862.47
2022-11-23T04:21:43.773Z,99861.06
2022-11-23T04:24:10.210Z,99867.00
2022-11-23T04:26:36.706Z,99864.44
2022-11-23T04:29:03.251Z,99865.34
2022-11-23T04:31:29.575Z,99856.59
2022-11-23T04:33:56.897Z,99863.56
2022-11-23T04:36:23.265Z,99868.56
2022-11-23T04:38:49.911Z,99868.56
2022-11-23T04:41:16.306Z,99861.50
2022-11-23T04:43:42.654Z,99866.41
2022-11-23T04:46:09.780Z,99869.47
2022-11-23T04:48:36.228Z,99873.09
2022-11-23T04:51:02.601Z,99870.75
2022-11-23T04:53:29.009Z,99866.50
2022-11-23T05:03:20.301Z,99870.56
2022-11-23T05:05:46.624Z,99868.66
2022-11-23T05:08:13.028Z,99876.94
2022-11-23T05:10:39.398Z,99873.88
2022-11-23T05:13:05.839Z,99871.69
2022-11-23T05:15:32.170Z,99873.06
2022-11-23T05:18:02.620Z,99861.47
2022-11-23T05:20:29.118Z,99869.97
2022-11-23T05:22:55.480Z,99866.16
2022-11-23T05:25:22.017Z,99859.75
2022-11-23T05:27:49.616Z,99867.91
2022-11-23T05:30:16.053Z,99865.19
2022-11-23T05:32:42.559Z,99867.00
2022-11-23T05:35:09.206Z,99864.69
2022-11-23T05:37:35.895Z,99864.22
2022-11-23T05:40:02.296Z,99855.06
2022-11-23T05:42:28.609Z,99867.91
2022-11-23T05:44:54.949Z,99865.34
2022-11-23T05:47:21.256Z,99868.56
2022-11-23T05:49:47.607Z,99872.00
2022-11-23T05:52:22.511Z,99870.47
2022-11-23T05:54:48.952Z,99865.84
2022-11-23T05:57:15.903Z,99867.91
2022-11-23T05:59:42.257Z,99867.16
2022-11-23T06:02:08.636Z,99873.56
2022-11-23T06:04:35.034Z,99857.38
2022-11-23T06:07:01.469Z,99855.47
2022-11-23T06:09:28.339Z,99863.94
2022-11-23T06:11:54.797Z,99872.00
2022-11-23T06:14:21.407Z,99861.16
2022-11-23T06:16:48.081Z,99872.69
2022-11-23T06:19:16.811Z,99885.66
2022-11-23T06:21:48.996Z,99891.50
2022-11-23T06:24:16.801Z,99884.13
2022-11-23T06:26:43.303Z,99894.66
2022-11-23T06:29:12.516Z,99889.50
2022-11-23T06:31:41.511Z,99888.81
2022-11-23T06:34:08.005Z,99896.16
2022-11-23T06:36:34.538Z,99892.09
2022-11-23T06:39:00.937Z,99894.47
2022-11-23T06:41:32.168Z,99896.19
2022-11-23T06:44:08.999Z,99910.38
2022-11-23T06:46:47.855Z,99908.38
2022-11-23T07:16:54.723Z,99919.50
2022-11-23T07:19:21.592Z,99911.09
2022-11-23T07:22:02.429Z,99914.84
2022-11-23T07:24:37.980Z,99922.38
2022-11-23T07:27:15.341Z,99927.50
2022-11-23T07:29:41.898Z,99932.75
2022-11-23T07:32:08.807Z,99925.88
2022-11-23T07:34:35.431Z,99930.03
2022-11-23T07:37:04.440Z,99942.25
2022-11-23T07:39:55.955Z,99941.72
2022-11-23T07:42:44.453Z,99932.44
2022-11-23T07:45:12.110Z,99935.94
2022-11-23T07:47:39.351Z,99933.41
2022-11-23T07:50:07.539Z,99934.84
2022-11-23T07:52:35.831Z,99948.47
2022-11-23T07:55:02.236Z,99946.56
2022-11-23T07:57:28.810Z,99949.19
2022-11-23T07:59:55.213Z,99952.28
2022-11-23T08:02:21.763Z,99951.31
2022-11-23T08:04:48.504Z,99953.38
2022-11-23T08:07:15.165Z,99949.72
2022-11-23T08:09:41.714Z,99954.06
2022-11-23T08:12:08.135Z,99954.56
2022-11-23T08:14:35.188Z,99950.59
2022-11-23T08:17:02.780Z,99950.63
2022-11-23T08:19:29.543Z,99952.72
2022-11-23T08:21:58.643Z,99960.22
2022-11-23T08:24:25.396Z,99968.78
2022-11-23T08:26:51.889Z,99963.56
2022-11-23T08:29:18.373Z,99953.31
2022-11-23T08:31:44.869Z,99965.63
2022-11-23T08:34:11.290Z,99964.28
2022-11-23T08:36:37.626Z,99964.69
2022-11-23T08:39:04.021Z,99958.44
2022-11-23T08:41:30.528Z,99971.34
2022-11-23T08:43:57.064Z,99964.13
2022-11-23T08:46:23.458Z,99957.09
2022-11-23T08:48:49.863Z,99960.09
2022-11-23T08:51:22.435Z,99966.47
2022-11-23T08:53:49.496Z,99965.44
2022-11-23T08:56:16.245Z,99969.09
2022-11-23T08:58:42.912Z,99975.03
2022-11-23T09:01:10.600Z,99973.38
2022-11-23T09:03:37.465Z,99973.50
2022-11-23T09:06:04.069Z,99966.88
2022-11-23T09:08:30.518Z,99965.50
2022-11-23T09:11:01.212Z,99971.56
2022-11-23T09:13:28.278Z,99971.09
2022-11-23T09:16:01.345Z,99971.22
2022-11-23T09:18:28.255Z,99975.22
2022-11-23T09:20:54.719Z,99972.53
2022-11-23T09:23:21.136Z,99973.59
2022-11-23T09:25:48.909Z,99961.31
2022-11-23T09:28:15.380Z,99968.69
2022-11-23T09:30:42.169Z,99962.66
2022-11-23T09:33:08.890Z,99964.41
2022-11-23T09:42:50.045Z,99958.13
2022-11-23T09:45:18.934Z,99956.34
2022-11-23T09:48:01.720Z,99944.91
2022-11-23T09:50:47.439Z,99950.72
2022-11-23T09:53:20.148Z,99952.22
2022-11-23T09:55:48.740Z,99948.50
2022-11-23T09:58:17.088Z,99936.88
2022-11-23T10:00:48.862Z,99938.81
2022-11-23T10:03:27.771Z,99937.94
2022-11-23T10:06:14.460Z,99944.31
2022-11-23T10:08:55.311Z,99942.28
2022-11-23T10:11:49.438Z,99937.94
2022-11-23T10:14:42.427Z,99942.94
2022-11-23T10:17:27.626Z,99941.22
2022-11-23T10:20:03.276Z,99938.75
2022-11-23T10:22:38.735Z,99942.00
2022-11-23T10:25:13.013Z,99943.63
2022-11-23T10:27:39.418Z,99946.38
2022-11-23T10:30:11.455Z,99942.69
2022-11-23T10:32:42.235Z,99936.31
2022-11-23T10:35:13.024Z,99933.56
2022-11-23T10:37:40.247Z,99936.38
2022-11-23T10:40:16.126Z,99933.06
2022-11-23T10:42:45.117Z,99930.56
2022-11-23T10:45:23.429Z,99938.28
2022-11-23T10:47:53.133Z,99932.06
2022-11-23T10:50:30.328Z,99936.56
2022-11-23T10:52:59.513Z,99933.31
2022-11-23T10:55:28.056Z,99930.94
2022-11-23T10:57:54.990Z,99881.91
2022-11-23T11:00:27.199Z,99925.88
2022-11-23T11:02:57.560Z,99929.56
2022-11-23T11:08:36.761Z,99929.63
2022-11-23T11:11:06.095Z,99933.41
2022-11-23T11:13:48.753Z,99928.53
2022-11-23T11:16:32.242Z,99929.47
2022-11-23T11:18:59.143Z,99922.31
2022-11-23T11:21:32.196Z,99921.09
2022-11-23T11:24:14.906Z,99916.97
2022-11-23T11:26:48.977Z,99922.72
2022-11-23T11:29:32.679Z,99922.41
2022-11-23T11:32:11.023Z,99907.72
2022-11-23T11:35:04.008Z,99901.97
2022-11-23T11:37:38.992Z,99907.56
2022-11-23T11:40:05.442Z,99913.88
2022-11-23T11:42:35.036Z,99916.34
2022-11-23T11:45:03.485Z,99916.84
2022-11-23T11:47:43.305Z,99912.41
2022-11-23T11:50:20.938Z,99918.38
2022-11-23T11:52:48.787Z,99918.31
2022-11-23T11:55:19.677Z,99919.63
2022-11-23T11:57:48.878Z,99926.53
2022-11-23T12:00:17.743Z,99919.88
2022-11-23T12:03:02.930Z,99920.56
2022-11-23T12:05:37.941Z,99919.97
2022-11-23T12:08:23.146Z,99918.19
2022-11-23T12:10:54.369Z,99918.38
2022-11-23T12:13:25.730Z,99913.94
2022-11-23T12:15:56.153Z,99912.13
2022-11-23T12:18:22.573Z,99913.75
2022-11-23T12:21:03.141Z,99914.38
2022-11-23T12:23:41.801Z,99916.66
2022-11-23T12:26:17.446Z,99920.75
2022-11-23T12:28:50.479Z,99919.31
2022-11-23T12:31:26.148Z,99921.69
2022-11-23T12:36:31.110Z,99918.63
2022-11-23T12:39:16.136Z,99910.66
2022-11-23T12:41:56.846Z,99919.44
2022-11-23T12:44:26.580Z,99923.13
2022-11-23T12:46:58.985Z,99923.31
2022-11-23T12:49:38.999Z,99919.97
2022-11-23T12:52:11.952Z,99914.09
2022-11-23T12:55:03.605Z,99914.22
2022-11-23T12:57:34.183Z,99914.97
2022-11-23T13:00:13.036Z,99922.28
2022-11-23T13:02:48.685Z,99908.88
2022-11-23T13:05:36.657Z,99903.78
2022-11-23T13:08:12.846Z,99908.13
2022-11-23T13:10:48.509Z,99906.69
2022-11-23T13:13:19.338Z,99913.50
2022-11-23T13:16:01.109Z,99908.06
2022-11-23T13:18:46.476Z,99918.31
2022-11-23T13:21:12.985Z,99913.59
2022-11-23T13:23:39.920Z,99907.00
2022-11-23T13:26:23.346Z,99912.38
2022-11-23T13:28:51.284Z,99911.28
2022-11-23T13:31:21.482Z,99906.09
2022-11-23T13:33:49.327Z,99897.34
2022-11-23T13:36:56.585Z,99897.91
2022-11-23T13:39:36.188Z,99895.84
2022-11-23T13:42:02.801Z,99897.81
2022-11-23T13:44:31.482Z,99907.59
2022-11-23T13:47:06.731Z,99903.47
2022-11-23T13:49:44.200Z,99905.66
2022-11-23T13:52:19.739Z,99919.19
2022-11-23T13:54:56.820Z,99919.25
2022-11-23T13:57:23.702Z,99915.34
2022-11-23T13:59:51.082Z,99919.59
2022-11-23T14:02:19.697Z,99937.72
2022-11-23T14:04:49.651Z,99936.59
2022-11-23T14:07:24.632Z,99934.31
2022-11-23T14:09:58.702Z,99938.56
2022-11-23T14:12:33.842Z,99936.00
2022-11-23T14:15:09.573Z,99926.06
2022-11-23T14:17:39.199Z,99930.97
2022-11-23T14:20:24.417Z,99929.66
2022-11-23T14:23:03.052Z,99932.41
2022-11-23T14:25:55.847Z,99924.19
2022-11-23T14:28:25.301Z,99924.16
2022-11-23T14:31:06.995Z,99926.75
2022-11-23T14:40:01.237Z,99923.19
2022-11-23T14:43:04.350Z,99930.31
2022-11-23T14:45:33.354Z,99929.78
2022-11-23T14:48:20.400Z,99932.47
2022-11-23T14:50:53.567Z,99939.84
2022-11-23T14:53:20.884Z,99942.03
2022-11-23T14:55:48.710Z,99944.34
2022-11-23T14:58:16.374Z,99942.47
2022-11-23T15:00:48.074Z,99940.50
2022-11-23T15:03:49.570Z,99943.31
2022-11-23T15:06:12.575Z,99948.59
2022-11-23T15:08:45.962Z,99944.81
2022-11-23T15:11:15.428Z,99945.81
2022-11-23T15:13:43.955Z,99947.94
2022-11-23T15:16:11.803Z,99946.88
2022-11-23T15:18:40.466Z,99950.81
2022-11-23T15:21:11.801Z,99954.56
2022-11-23T15:23:51.339Z,99953.00
2022-11-23T15:26:46.090Z,99956.97
2022-11-23T15:29:27.782Z,99956.03
2022-11-23T15:32:22.446Z,99955.97
2022-11-23T15:34:45.933Z,99958.91
2022-11-23T15:37:12.880Z,99963.66
2022-11-23T15:40:37.147Z,99965.81
2022-11-23T15:43:02.103Z,99964.94
2022-11-23T15:48:28.688Z,99971.56
2022-11-23T15:50:56.254Z,99971.38
2022-11-23T15:53:26.240Z,99968.59
2022-11-23T15:55:53.309Z,99958.53
2022-11-23T15:58:24.002Z,99966.28
2022-11-23T16:00:53.320Z,99969.28
2022-11-23T16:03:33.957Z,99969.94
2022-11-23T16:06:12.618Z,99968.50
2022-11-23T16:08:48.460Z,99976.09
2022-11-23T16:11:42.430Z,99982.88
2022-11-23T16:14:16.856Z,99981.06
2022-11-23T16:17:00.929Z,99990.44
2022-11-23T16:19:28.968Z,99997.13
2022-11-23T16:22:02.006Z,99990.34
2022-11-23T16:24:32.009Z,99991.84
2022-11-23T16:26:59.102Z,99996.25
2022-11-23T16:29:26.642Z,99996.03
2022-11-23T16:31:55.045Z,99993.25
2022-11-23T16:34:21.485Z,99997.09
2022-11-23T16:36:48.133Z,99997.34
2022-11-23T16:39:14.625Z,99998.03
2022-11-23T16:41:43.101Z,100005.06
2022-11-23T16:44:09.572Z,100001.28
2022-11-23T16:46:41.906Z,100004.97
2022-11-23T16:49:14.660Z,99998.63
2022-11-23T16:51:41.083Z,99994.06
2022-11-23T16:54:13.582Z,100004.41
2022-11-23T16:56:40.687Z,99993.31
2022-11-23T16:59:09.122Z,100003.75
2022-11-23T17:01:37.551Z,99989.16
2022-11-23T17:06:47.313Z,99997.81
2022-11-23T17:09:23.805Z,99994.84
2022-11-23T17:22:04.277Z,99993.25
2022-11-23T17:24:30.974Z,99986.28
2022-11-23T17:26:57.610Z,99982.38
2022-11-23T17:29:24.595Z,99983.94
2022-11-23T17:31:51.042Z,99984.09
2022-11-23T17:34:23.097Z,99992.19
2022-11-23T17:36:56.028Z,99989.38
2022-11-23T17:39:24.568Z,99997.41
2022-11-23T17:41:51.390Z,100005.50
2022-11-23T17:44:18.437Z,100008.16
2022-11-23T17:46:47.558Z,100011.44
2022-11-23T17:49:15.043Z,100007.66
2022-11-23T17:51:44.178Z,100001.41
2022-11-23T17:54:19.286Z,100000.56
2022-11-23T17:56:46.741Z,100006.28
2022-11-23T17:59:16.209Z,100013.69
2022-11-23T18:01:42.771Z,100024.22
2022-11-23T18:04:23.437Z,100034.56
2022-11-23T18:06:50.129Z,100026.91
2022-11-23T18:09:16.650Z,100034.91
2022-11-23T18:11:43.218Z,100028.78
2022-11-23T18:14:09.685Z,100025.28
2022-11-23T18:16:37.291Z,100028.34
2022-11-23T19:02:34.603Z,100059.50
2022-11-23T21:48:41.458Z,100165.13
2022-11-23T21:51:11.495Z,100168.09
2022-11-23T21:53:42.034Z,100170.03
2022-11-23T21:56:10.963Z,100170.47
2022-11-23T23:00:37.671Z,100214.53
2022-11-23T23:03:04.339Z,100214.00
2022-11-23T23:05:31.036Z,100212.81
2022-11-23T23:07:57.597Z,100214.72
2022-11-23T23:10:24.191Z,100208.53
2022-11-23T23:12:54.124Z,100216.72
2022-11-23T23:15:20.700Z,100217.91
2022-11-23T23:17:47.621Z,100215.09
2022-11-23T23:20:20.429Z,100215.28
2022-11-23T23:22:47.131Z,100216.47
2022-11-23T23:25:13.625Z,100221.09
2022-11-23T23:27:40.056Z,100219.50
2022-11-23T23:30:06.733Z,100228.25
2022-11-23T23:32:33.171Z,100231.34
2022-11-23T23:34:59.517Z,100230.91
2022-11-23T23:37:25.910Z,100234.38
2022-11-23T23:39:52.416Z,100233.63
2022-11-23T23:42:18.847Z,100239.03
2022-11-23T23:44:45.492Z,100236.25
2022-11-23T23:47:11.821Z,100243.25
2022-11-23T23:49:38.255Z,100235.34
2022-11-23T23:52:05.048Z,100238.28
2022-11-23T23:54:32.135Z,100246.50
2022-11-23T23:56:59.020Z,100241.34
2022-11-23T23:59:25.901Z,100242.88
